createdAt,value
2023-04-09T00:01:33.714Z,13.95
2023-04-09T00:04:00.994Z,13.95
2023-04-09T00:06:27.752Z,13.93
2023-04-09T00:08:54.515Z,13.94
2023-04-09T00:11:21.603Z,13.93
2023-04-09T00:13:48.183Z,13.92
2023-04-09T00:16:14.787Z,13.92
2023-04-09T00:18:41.874Z,13.92
2023-04-09T00:21:08.891Z,13.91
2023-04-09T00:23:36.104Z,13.92
2023-04-09T00:26:02.687Z,13.90
2023-04-09T00:28:29.349Z,13.88
2023-04-09T00:30:57.226Z,13.88
2023-04-09T00:33:23.845Z,13.86
2023-04-09T00:35:50.558Z,13.88
2023-04-09T00:38:17.176Z,13.85
2023-04-09T00:40:43.861Z,13.83
2023-04-09T00:43:10.486Z,13.85
2023-04-09T00:45:37.480Z,13.84
2023-04-09T00:48:04.442Z,13.80
2023-04-09T00:50:31.012Z,13.81
2023-04-09T00:52:57.596Z,13.81
2023-04-09T00:55:25.107Z,13.80
2023-04-09T00:57:51.714Z,13.81
2023-04-09T01:00:18.351Z,13.83
2023-04-09T01:02:45.236Z,13.81
2023-04-09T01:05:12.768Z,13.80
2023-04-09T01:08:01.723Z,13.80
2023-04-09T01:10:28.272Z,13.79
2023-04-09T01:13:04.065Z,13.77
2023-04-09T01:15:36.272Z,13.77
2023-04-09T01:18:20.587Z,13.75
2023-04-09T01:20:49.768Z,13.75
2023-04-09T01:23:19.811Z,13.78
2023-04-09T01:25:52.445Z,13.74
2023-04-09T01:28:19.338Z,13.75
2023-04-09T01:30:50.788Z,13.72
2023-04-09T01:33:17.988Z,13.73
2023-04-09T01:35:46.602Z,13.71
2023-04-09T01:38:14.348Z,13.73
2023-04-09T01:40:41.025Z,13.69
2023-04-09T01:43:08.683Z,13.68
2023-04-09T01:45:35.232Z,13.65
2023-04-09T01:48:03.414Z,13.67
2023-04-09T01:50:30.304Z,13.63
2023-04-09T01:52:57.091Z,13.63
2023-04-09T01:55:23.783Z,13.63
2023-04-09T01:57:50.436Z,13.61
2023-04-09T02:00:17.158Z,13.60
2023-04-09T02:03:08.009Z,13.60
2023-04-09T02:05:37.376Z,13.59
2023-04-09T02:08:06.836Z,13.65
2023-04-09T02:10:35.843Z,13.65
2023-04-09T02:13:05.733Z,13.64
2023-04-09T02:15:34.497Z,13.58
2023-04-09T02:18:01.654Z,13.57
2023-04-09T02:20:28.393Z,13.56
2023-04-09T02:22:55.085Z,13.55
2023-04-09T02:25:22.584Z,13.54
2023-04-09T02:27:49.261Z,13.54
2023-04-09T02:30:15.972Z,13.53
2023-04-09T02:32:42.484Z,13.51
2023-04-09T02:35:09.186Z,13.51
2023-04-09T02:37:35.710Z,13.49
2023-04-09T02:40:02.161Z,13.50
2023-04-09T02:42:28.671Z,13.48
2023-04-09T02:44:55.671Z,13.47
2023-04-09T02:47:23.198Z,13.46
2023-04-09T02:49:49.981Z,13.44
2023-04-09T02:52:16.484Z,13.45
2023-04-09T02:54:43.048Z,13.44
2023-04-09T02:57:09.656Z,13.43
2023-04-09T02:59:36.166Z,13.43
2023-04-09T03:02:02.975Z,13.42
2023-04-09T03:04:29.625Z,13.42
2023-04-09T03:06:56.252Z,13.41
2023-04-09T03:09:22.836Z,13.39
2023-04-09T03:11:49.496Z,13.38
2023-04-09T03:14:16.166Z,13.38
2023-04-09T03:16:44.316Z,13.36
2023-04-09T03:19:10.871Z,13.36
2023-04-09T03:21:37.336Z,13.35
2023-04-09T03:24:05.263Z,13.34
2023-04-09T03:26:36.168Z,13.35
2023-04-09T03:29:05.761Z,13.32
2023-04-09T03:31:32.933Z,13.33
2023-04-09T03:33:59.560Z,13.31
2023-04-09T03:36:28.235Z,13.27
2023-04-09T03:39:09.425Z,13.27
2023-04-09T03:41:39.186Z,13.28
2023-04-09T03:44:10.490Z,13.26
2023-04-09T03:46:54.727Z,13.25
2023-04-09T03:49:21.411Z,13.23
2023-04-09T03:51:48.035Z,13.23
2023-04-09T03:54:15.278Z,13.23
2023-04-09T03:56:42.294Z,13.22
2023-04-09T03:59:12.164Z,13.22
2023-04-09T04:01:41.904Z,13.21
2023-04-09T04:04:09.496Z,13.21
2023-04-09T04:06:56.605Z,13.19
2023-04-09T04:09:43.316Z,13.19
2023-04-09T04:12:14.171Z,13.16
2023-04-09T04:15:01.163Z,13.16
2023-04-09T04:17:38.937Z,13.14
2023-04-09T04:20:24.263Z,13.12
2023-04-09T04:23:00.820Z,13.12
2023-04-09T04:25:27.626Z,13.11
2023-04-09T04:27:55.662Z,13.10
2023-04-09T04:30:27.928Z,13.11
2023-04-09T04:33:00.063Z,13.10
2023-04-09T04:35:30.924Z,13.08
2023-04-09T04:38:01.618Z,13.10
2023-04-09T04:40:29.050Z,13.07
2023-04-09T04:43:00.174Z,13.07
2023-04-09T04:45:27.304Z,13.08
2023-04-09T04:47:59.815Z,13.04
2023-04-09T04:50:27.038Z,13.05
2023-04-09T04:52:59.129Z,13.05
2023-04-09T04:55:30.480Z,13.02
2023-04-09T04:58:00.482Z,13.02
2023-04-09T05:00:32.128Z,13.00
2023-04-09T05:03:01.983Z,13.03
2023-04-09T05:05:53.025Z,13.01
2023-04-09T05:08:20.732Z,13.01
2023-04-09T05:10:51.275Z,12.97
2023-04-09T05:13:19.660Z,12.97
2023-04-09T05:15:46.403Z,12.98
2023-04-09T05:18:12.974Z,12.97
2023-04-09T05:20:39.701Z,12.94
2023-04-09T05:23:12.656Z,12.93
2023-04-09T05:25:48.518Z,12.93
2023-04-09T05:28:23.678Z,12.93
2023-04-09T05:31:00.980Z,12.93
2023-04-09T05:33:27.634Z,12.90
2023-04-09T05:35:54.186Z,12.92
2023-04-09T05:38:20.776Z,12.91
2023-04-09T05:40:54.913Z,12.91
2023-04-09T05:43:21.958Z,12.90
2023-04-09T05:45:48.576Z,12.88
2023-04-09T05:48:15.166Z,12.89
2023-04-09T05:50:53.730Z,12.90
2023-04-09T05:53:23.250Z,12.89
2023-04-09T05:55:49.932Z,12.89
2023-04-09T05:58:21.680Z,12.88
2023-04-09T06:00:48.931Z,12.87
2023-04-09T06:03:15.800Z,12.86
2023-04-09T06:05:42.653Z,12.86
2023-04-09T06:08:09.311Z,12.87
2023-04-09T06:10:36.339Z,12.86
2023-04-09T06:13:02.810Z,12.85
2023-04-09T06:15:29.735Z,12.86
2023-04-09T06:17:58.881Z,12.86
2023-04-09T06:20:26.127Z,12.85
2023-04-09T06:22:52.697Z,12.87
2023-04-09T06:25:19.549Z,12.85
2023-04-09T06:27:46.444Z,12.87
2023-04-09T06:30:13.110Z,12.86
2023-04-09T06:32:51.086Z,12.86
2023-04-09T06:35:20.597Z,12.86
2023-04-09T06:37:47.182Z,12.86
2023-04-09T06:40:14.224Z,12.85
2023-04-09T06:42:41.033Z,12.85
2023-04-09T06:45:31.365Z,12.84
2023-04-09T06:47:58.610Z,12.85
2023-04-09T06:50:25.287Z,12.86
2023-04-09T06:52:51.932Z,12.88
2023-04-09T06:55:18.753Z,12.87
2023-04-09T06:57:45.271Z,12.89
2023-04-09T07:00:12.287Z,12.88
2023-04-09T07:02:39.244Z,12.90
2023-04-09T07:05:06.210Z,12.90
2023-04-09T07:07:32.906Z,12.92
2023-04-09T07:09:59.642Z,12.93
2023-04-09T07:12:29.905Z,12.92
2023-04-09T07:15:03.228Z,12.93
2023-04-09T07:17:31.045Z,12.92
2023-04-09T07:19:57.721Z,12.95
2023-04-09T07:22:25.560Z,12.94
2023-04-09T07:24:55.791Z,12.97
2023-04-09T07:27:22.327Z,12.94
2023-04-09T07:29:49.031Z,12.96
2023-04-09T07:32:16.417Z,12.94
2023-04-09T07:34:43.545Z,12.97
2023-04-09T07:37:10.188Z,12.96
2023-04-09T07:39:36.851Z,12.96
2023-04-09T07:42:04.631Z,12.98
2023-04-09T07:44:37.685Z,12.98
2023-04-09T07:47:05.086Z,12.99
2023-04-09T07:49:31.865Z,13.01
2023-04-09T07:51:59.342Z,13.02
2023-04-09T07:54:25.943Z,13.00
2023-04-09T07:56:52.631Z,13.03
2023-04-09T07:59:19.336Z,13.00
2023-04-09T08:01:46.180Z,13.02
2023-04-09T08:04:13.800Z,13.00
2023-04-09T08:06:41.349Z,13.02
2023-04-09T08:09:07.876Z,13.02
2023-04-09T08:11:35.311Z,13.03
2023-04-09T08:14:03.681Z,13.03
2023-04-09T08:16:30.573Z,13.04
2023-04-09T08:18:57.383Z,13.05
2023-04-09T08:21:23.948Z,13.04
2023-04-09T08:23:51.282Z,13.05
2023-04-09T08:26:17.975Z,13.06
2023-04-09T08:28:44.538Z,13.06
2023-04-09T08:31:11.094Z,13.05
2023-04-09T08:33:37.792Z,13.05
2023-04-09T08:36:08.161Z,13.06
2023-04-09T08:38:34.810Z,13.07
2023-04-09T08:41:01.469Z,13.07
2023-04-09T08:43:37.406Z,13.07
2023-04-09T08:46:15.742Z,13.07
2023-04-09T08:48:46.631Z,13.06
2023-04-09T08:51:15.666Z,13.08
2023-04-09T08:54:03.252Z,13.09
2023-04-09T08:56:39.819Z,13.09
2023-04-09T08:59:06.345Z,13.10
2023-04-09T09:01:33.446Z,13.10
2023-04-09T09:04:00.407Z,13.10
2023-04-09T09:06:29.351Z,13.10
2023-04-09T09:09:02.847Z,13.10
2023-04-09T09:11:30.542Z,13.11
2023-04-09T09:13:57.760Z,13.09
2023-04-09T09:16:24.572Z,13.13
2023-04-09T09:18:53.248Z,13.12
2023-04-09T09:21:20.002Z,13.12
2023-04-09T09:23:48.431Z,13.14
2023-04-09T09:26:19.119Z,13.13
2023-04-09T09:28:48.591Z,13.14
2023-04-09T09:31:16.411Z,13.13
2023-04-09T09:33:43.044Z,13.16
2023-04-09T09:36:09.741Z,13.14
2023-04-09T09:38:53.622Z,13.17
2023-04-09T09:41:20.987Z,13.17
2023-04-09T09:43:48.335Z,13.18
2023-04-09T09:46:15.493Z,13.17
2023-04-09T09:48:42.592Z,13.17
2023-04-09T09:51:09.967Z,13.19
2023-04-09T09:53:37.701Z,13.20
2023-04-09T09:56:05.608Z,13.20
2023-04-09T09:58:36.888Z,13.22
2023-04-09T10:01:07.001Z,13.22
2023-04-09T10:03:34.858Z,13.24
2023-04-09T10:06:02.914Z,13.23
2023-04-09T10:08:30.519Z,13.24
2023-04-09T10:10:57.293Z,13.24
2023-04-09T10:13:32.276Z,13.24
2023-04-09T10:15:59.091Z,13.26
2023-04-09T10:18:26.383Z,13.26
2023-04-09T10:21:05.751Z,13.27
2023-04-09T10:23:38.533Z,13.27
2023-04-09T10:26:05.936Z,13.29
2023-04-09T10:28:32.405Z,13.30
2023-04-09T10:30:59.589Z,13.30
2023-04-09T10:33:27.107Z,13.32
2023-04-09T10:35:55.159Z,13.33
2023-04-09T10:38:37.956Z,13.32
2023-04-09T10:41:30.842Z,13.35
2023-04-09T10:43:57.642Z,13.36
2023-04-09T10:46:28.603Z,13.37
2023-04-09T10:49:07.814Z,13.39
2023-04-09T10:51:41.843Z,13.41
2023-04-09T10:54:27.437Z,13.42
2023-04-09T10:57:09.257Z,13.43
2023-04-09T10:59:36.471Z,13.44
2023-04-09T11:02:07.106Z,13.45
2023-04-09T11:04:54.029Z,13.45
2023-04-09T11:07:22.319Z,13.48
2023-04-09T11:09:48.921Z,13.50
2023-04-09T11:12:15.532Z,13.51
2023-04-09T11:14:42.205Z,13.51
2023-04-09T11:17:08.729Z,13.51
2023-04-09T11:19:35.617Z,13.52
2023-04-09T11:22:04.903Z,13.55
2023-04-09T11:24:40.206Z,13.58
2023-04-09T11:27:06.780Z,13.59
2023-04-09T11:29:35.052Z,13.61
2023-04-09T11:32:02.571Z,13.61
2023-04-09T11:34:29.270Z,13.64
2023-04-09T11:36:56.979Z,13.64
2023-04-09T11:39:23.475Z,13.65
2023-04-09T11:41:50.294Z,13.68
2023-04-09T11:44:16.954Z,13.70
2023-04-09T11:46:44.110Z,13.72
2023-04-09T11:49:10.968Z,13.73
2023-04-09T11:51:37.717Z,13.75
2023-04-09T11:54:07.942Z,13.77
2023-04-09T11:56:36.242Z,13.78
2023-04-09T11:59:03.375Z,13.77
2023-04-09T12:01:33.225Z,13.80
2023-04-09T12:04:00.831Z,13.81
2023-04-09T12:06:28.024Z,13.81
2023-04-09T12:08:56.265Z,13.83
2023-04-09T12:11:28.121Z,13.86
2023-04-09T12:14:02.784Z,13.88
2023-04-09T12:16:32.651Z,13.90
2023-04-09T12:19:02.657Z,13.91
2023-04-09T12:21:48.061Z,13.92
2023-04-09T12:24:15.441Z,13.96
2023-04-09T12:26:42.080Z,13.97
2023-04-09T12:29:08.696Z,14.00
2023-04-09T12:31:36.168Z,14.03
2023-04-09T12:34:02.929Z,14.02
2023-04-09T12:36:32.269Z,14.05
2023-04-09T12:38:58.859Z,14.06
2023-04-09T12:41:25.553Z,14.06
2023-04-09T12:43:52.374Z,14.08
2023-04-09T12:46:20.017Z,14.10
2023-04-09T12:48:46.796Z,14.11
2023-04-09T12:51:13.869Z,14.14
2023-04-09T12:53:40.926Z,14.14
2023-04-09T12:56:07.775Z,14.16
2023-04-09T12:58:34.329Z,14.18
2023-04-09T13:01:01.451Z,14.17
2023-04-09T13:03:29.179Z,14.19
2023-04-09T13:05:56.546Z,14.19
2023-04-09T13:08:23.132Z,14.21
2023-04-09T13:10:49.782Z,14.21
2023-04-09T13:13:16.555Z,14.21
2023-04-09T13:15:46.316Z,14.22
2023-04-09T13:18:13.378Z,14.20
2023-04-09T13:20:40.349Z,14.20
2023-04-09T13:23:06.916Z,14.20
2023-04-09T13:25:33.558Z,14.21
2023-04-09T13:28:00.310Z,14.23
2023-04-09T13:30:26.824Z,14.26
2023-04-09T13:32:53.490Z,14.29
2023-04-09T13:35:20.155Z,14.29
2023-04-09T13:37:49.453Z,14.31
2023-04-09T13:40:16.466Z,14.33
2023-04-09T13:42:42.982Z,14.34
2023-04-09T13:45:09.764Z,14.37
2023-04-09T13:47:36.711Z,14.38
2023-04-09T13:50:03.802Z,14.40
2023-04-09T13:52:31.788Z,14.44
2023-04-09T13:54:58.429Z,14.47
2023-04-09T13:57:24.908Z,14.51
2023-04-09T13:59:51.624Z,14.55
2023-04-09T14:02:19.231Z,14.56
2023-04-09T14:04:45.968Z,14.58
2023-04-09T14:07:12.582Z,14.58
2023-04-09T14:09:39.162Z,14.64
2023-04-09T14:12:05.909Z,14.66
2023-04-09T14:14:32.679Z,14.65
2023-04-09T14:16:59.342Z,14.69
2023-04-09T14:19:25.903Z,14.69
2023-04-09T14:21:53.347Z,14.72
2023-04-09T14:24:22.968Z,14.75
2023-04-09T14:26:51.424Z,14.79
2023-04-09T14:29:18.022Z,14.79
2023-04-09T14:31:44.783Z,14.81
2023-04-09T14:34:11.369Z,14.82
2023-04-09T14:36:37.884Z,14.84
2023-04-09T14:39:04.579Z,14.87
2023-04-09T14:41:34.213Z,14.89
2023-04-09T14:44:00.931Z,14.90
2023-04-09T14:46:27.739Z,14.93
2023-04-09T14:48:54.787Z,14.94
2023-04-09T14:51:21.672Z,14.97
2023-04-09T14:53:48.620Z,15.00
2023-04-09T14:56:15.197Z,15.01
2023-04-09T14:58:41.764Z,15.02
2023-04-09T15:01:08.439Z,15.02
2023-04-09T15:03:35.433Z,15.03
2023-04-09T15:06:02.279Z,15.06
2023-04-09T15:08:28.913Z,15.08
2023-04-09T15:10:55.516Z,15.08
2023-04-09T15:13:22.285Z,15.10
2023-04-09T15:15:48.953Z,15.11
2023-04-09T15:18:15.630Z,15.14
2023-04-09T15:20:43.393Z,15.12
2023-04-09T15:23:10.777Z,15.13
2023-04-09T15:25:37.510Z,15.16
2023-04-09T15:28:04.395Z,15.17
2023-04-09T15:30:31.180Z,15.19
2023-04-09T15:32:57.714Z,15.20
2023-04-09T15:35:25.034Z,15.21
2023-04-09T15:37:51.821Z,15.22
2023-04-09T15:40:18.708Z,15.22
2023-04-09T15:42:45.277Z,15.24
2023-04-09T15:45:13.129Z,15.26
2023-04-09T15:47:39.657Z,15.28
2023-04-09T15:50:06.713Z,15.28
2023-04-09T15:52:33.463Z,15.31
2023-04-09T15:54:59.978Z,15.33
2023-04-09T15:57:26.591Z,15.32
2023-04-09T15:59:53.118Z,15.35
2023-04-09T16:02:19.978Z,15.32
2023-04-09T16:04:46.737Z,15.35
2023-04-09T16:07:16.604Z,15.36
2023-04-09T16:09:43.319Z,15.36
2023-04-09T16:12:10.133Z,15.37
2023-04-09T16:14:37.027Z,15.39
2023-04-09T16:17:03.835Z,15.39
2023-04-09T16:19:30.621Z,15.39
2023-04-09T16:21:57.629Z,15.39
2023-04-09T16:24:24.124Z,15.39
2023-04-09T16:26:50.825Z,15.40
2023-04-09T16:29:17.844Z,15.43
2023-04-09T16:31:44.540Z,15.41
2023-04-09T16:34:11.327Z,15.41
2023-04-09T16:36:38.073Z,15.41
2023-04-09T16:39:04.973Z,15.41
2023-04-09T16:41:32.042Z,15.41
2023-04-09T16:43:58.953Z,15.43
2023-04-09T16:46:25.641Z,15.41
2023-04-09T16:48:52.531Z,15.44
2023-04-09T16:51:19.351Z,15.43
2023-04-09T16:53:45.952Z,15.41
2023-04-09T16:56:12.567Z,15.40
2023-04-09T16:58:39.100Z,15.39
2023-04-09T17:01:05.776Z,15.36
2023-04-09T17:03:32.361Z,15.36
2023-04-09T17:05:58.962Z,15.37
2023-04-09T17:08:25.653Z,15.34
2023-04-09T17:10:52.785Z,15.32
2023-04-09T17:13:19.532Z,15.32
2023-04-09T17:15:46.182Z,15.32
2023-04-09T17:18:12.864Z,15.31
2023-04-09T17:20:39.585Z,15.37
2023-04-09T17:23:06.661Z,15.43
2023-04-09T17:25:33.282Z,15.46
2023-04-09T17:28:01.568Z,15.59
2023-04-09T17:30:28.206Z,15.65
2023-04-09T17:32:54.761Z,15.71
2023-04-09T17:35:21.440Z,15.79
2023-04-09T17:37:48.058Z,15.85
2023-04-09T17:40:15.597Z,15.98
2023-04-09T17:42:42.203Z,16.10
2023-04-09T17:45:09.159Z,16.13
2023-04-09T17:47:35.775Z,16.23
2023-04-09T17:50:02.683Z,16.27
2023-04-09T17:52:29.965Z,16.30
2023-04-09T17:54:56.727Z,16.33
2023-04-09T17:57:23.479Z,16.33
2023-04-09T17:59:50.198Z,16.35
2023-04-09T18:02:16.924Z,16.35
2023-04-09T18:04:43.897Z,16.35
2023-04-09T18:07:10.713Z,16.34
2023-04-09T18:09:39.179Z,16.34
2023-04-09T18:12:06.169Z,16.34
2023-04-09T18:14:32.691Z,16.36
2023-04-09T18:16:59.473Z,16.32
2023-04-09T18:19:26.060Z,16.33
2023-04-09T18:21:52.541Z,16.34
2023-04-09T18:24:19.229Z,16.30
2023-04-09T18:26:45.704Z,16.30
2023-04-09T18:29:12.670Z,16.30
2023-04-09T18:31:39.323Z,16.27
2023-04-09T18:34:06.162Z,16.26
2023-04-09T18:36:32.680Z,16.28
2023-04-09T18:38:59.230Z,16.25
2023-04-09T18:41:26.825Z,16.21
2023-04-09T18:43:54.005Z,16.20
2023-04-09T18:46:20.836Z,16.17
2023-04-09T18:48:47.499Z,16.13
2023-04-09T18:51:14.792Z,16.11
2023-04-09T18:53:41.973Z,16.09
2023-04-09T18:56:09.320Z,16.07
2023-04-09T18:58:36.407Z,16.03
2023-04-09T19:01:12.213Z,16.00
2023-04-09T19:03:39.968Z,15.97
2023-04-09T19:06:14.317Z,15.93
2023-04-09T19:08:41.168Z,15.91
2023-04-09T19:11:08.021Z,15.86
2023-04-09T19:13:34.974Z,15.84
2023-04-09T19:16:02.241Z,15.82
2023-04-09T19:18:29.203Z,15.80
2023-04-09T19:20:55.816Z,15.84
2023-04-09T19:23:22.353Z,15.92
2023-04-09T19:25:53.445Z,15.97
2023-04-09T19:28:20.222Z,16.05
2023-04-09T19:30:46.997Z,16.09
2023-04-09T19:33:13.652Z,16.15
2023-04-09T19:35:43.258Z,16.24
2023-04-09T19:38:10.065Z,16.35
2023-04-09T19:40:36.776Z,16.41
2023-04-09T19:43:03.348Z,16.45
2023-04-09T19:45:30.007Z,16.48
2023-04-09T19:47:56.640Z,16.51
2023-04-09T19:50:23.325Z,16.61
2023-04-09T19:52:49.981Z,16.64
2023-04-09T19:55:16.629Z,16.68
2023-04-09T19:57:44.302Z,16.71
2023-04-09T20:00:11.453Z,16.73
2023-04-09T20:02:39.664Z,16.71
2023-04-09T20:05:06.489Z,16.75
2023-04-09T20:07:33.085Z,16.75
2023-04-09T20:09:59.882Z,16.79
2023-04-09T20:12:29.438Z,16.78
2023-04-09T20:14:57.356Z,16.76
2023-04-09T20:17:24.424Z,16.72
2023-04-09T20:19:51.365Z,16.70
2023-04-09T20:22:18.171Z,16.73
2023-04-09T20:24:44.823Z,16.70
2023-04-09T20:27:11.298Z,16.64
2023-04-09T20:29:37.894Z,16.61
2023-04-09T20:32:04.602Z,16.61
2023-04-09T20:34:31.569Z,16.60
2023-04-09T20:36:58.511Z,16.58
2023-04-09T20:39:26.965Z,16.61
2023-04-09T20:41:53.905Z,16.53
2023-04-09T20:44:20.528Z,16.54
2023-04-09T20:46:47.074Z,16.49
2023-04-09T20:49:13.649Z,16.42
2023-04-09T20:51:40.591Z,16.39
2023-04-09T20:54:07.195Z,16.36
2023-04-09T20:56:34.502Z,16.37
2023-04-09T20:59:01.450Z,16.34
2023-04-09T21:01:28.636Z,16.31
2023-04-09T21:03:55.428Z,16.27
2023-04-09T21:06:21.995Z,16.27
2023-04-09T21:08:48.590Z,16.23
2023-04-09T21:11:15.471Z,16.23
2023-04-09T21:13:53.933Z,16.17
2023-04-09T21:16:21.541Z,16.14
2023-04-09T21:18:48.933Z,16.14
2023-04-09T21:21:15.696Z,16.11
2023-04-09T21:23:42.302Z,16.10
2023-04-09T21:26:10.108Z,16.07
2023-04-09T21:28:36.706Z,16.07
2023-04-09T21:31:03.721Z,16.06
2023-04-09T21:33:30.785Z,16.03
2023-04-09T21:35:57.858Z,16.02
2023-04-09T21:38:24.546Z,16.03
2023-04-09T21:40:51.295Z,16.01
2023-04-09T21:43:17.813Z,15.99
2023-04-09T21:45:44.419Z,15.99
2023-04-09T21:48:12.392Z,15.96
2023-04-09T21:50:39.051Z,15.94
2023-04-09T21:53:05.694Z,15.94
2023-04-09T21:55:32.345Z,15.92
2023-04-09T21:57:58.828Z,15.92
2023-04-09T22:00:25.630Z,15.90
2023-04-09T22:02:52.584Z,15.90
2023-04-09T22:05:19.416Z,15.90
2023-04-09T22:07:45.980Z,15.88
2023-04-09T22:10:12.523Z,15.87
2023-04-09T22:12:39.123Z,15.87
2023-04-09T22:15:05.982Z,15.86
2023-04-09T22:17:32.752Z,15.86
2023-04-09T22:19:59.462Z,15.87
2023-04-09T22:22:26.130Z,15.85
2023-04-09T22:24:52.842Z,15.84
2023-04-09T22:27:19.382Z,15.82
2023-04-09T22:29:46.189Z,15.82
2023-04-09T22:32:12.764Z,15.82
2023-04-09T22:34:39.408Z,15.79
2023-04-09T22:37:07.398Z,15.80
2023-04-09T22:39:33.984Z,15.79
2023-04-09T22:42:01.828Z,15.82
2023-04-09T22:44:28.407Z,15.80
2023-04-09T22:46:55.063Z,15.82
2023-04-09T22:49:23.722Z,15.79
2023-04-09T22:51:50.438Z,15.80
2023-04-09T22:54:17.103Z,15.80
2023-04-09T22:56:44.812Z,15.82
2023-04-09T22:59:11.318Z,15.78
2023-04-09T23:01:38.041Z,15.76
2023-04-09T23:04:04.692Z,15.72
2023-04-09T23:06:31.223Z,15.71
2023-04-09T23:08:59.793Z,15.69
2023-04-09T23:11:27.368Z,15.68
2023-04-09T23:13:54.063Z,15.68
2023-04-09T23:16:21.072Z,15.66
2023-04-09T23:18:47.773Z,15.66
2023-04-09T23:21:14.216Z,15.64
2023-04-09T23:23:40.876Z,15.64
2023-04-09T23:26:07.532Z,15.62
2023-04-09T23:28:34.147Z,15.62
2023-04-09T23:31:01.198Z,15.62
2023-04-09T23:33:28.014Z,15.62
2023-04-09T23:35:54.747Z,15.59
2023-04-09T23:38:21.485Z,15.62
2023-04-09T23:40:48.599Z,15.63
2023-04-09T23:43:15.123Z,15.60
2023-04-09T23:45:42.751Z,15.60
2023-04-09T23:48:09.792Z,15.61
2023-04-09T23:50:39.788Z,15.60
2023-04-09T23:53:06.686Z,15.59
2023-04-09T23:55:34.196Z,15.57
2023-04-09T23:58:00.989Z,15.55
